sensor_id;sensor_type;location;lat;lon;timestamp;pressure;altitude;pressure_sealevel;temperature;humidity
46756;BME280;32506;52.826;-1.192;2023-02-14T17:30:10;102212.34;;;12.62;54.34
46756;BME280;32506;52.826;-1.192;2023-02-14T17:32:35;102216.25;;;12.59;54.81
46756;BME280;32506;52.826;-1.192;2023-02-14T17:35:01;102216.25;;;12.59;54.53
46756;BME280;32506;52.826;-1.192;2023-02-14T17:37:29;102213.38;;;12.61;54.47
46756;BME280;32506;52.826;-1.192;2023-02-14T17:39:55;102223.28;;;12.60;53.99
46756;BME280;32506;52.826;-1.192;2023-02-14T17:42:20;102211.69;;;12.59;54.07
46756;BME280;32506;52.826;-1.192;2023-02-14T17:44:46;102212.06;;;12.56;53.90
46756;BME280;32506;52.826;-1.192;2023-02-14T17:47:11;102216.16;;;12.52;53.71
46756;BME280;32506;52.826;-1.192;2023-02-14T17:49:39;102209.50;;;12.48;53.99
46756;BME280;32506;52.826;-1.192;2023-02-14T17:52:04;102212.91;;;12.42;53.56
46756;BME280;32506;52.826;-1.192;2023-02-14T17:54:29;102214.28;;;12.38;53.54
46756;BME280;32506;52.826;-1.192;2023-02-14T17:56:55;102208.03;;;12.31;53.29
46756;BME280;32506;52.826;-1.192;2023-02-14T17:59:20;102211.44;;;12.24;52.89
46756;BME280;32506;52.826;-1.192;2023-02-14T18:01:46;102205.97;;;12.18;53.47
46756;BME280;32506;52.826;-1.192;2023-02-14T18:04:11;102204.22;;;12.10;52.99
46756;BME280;32506;52.826;-1.192;2023-02-14T18:06:37;102198.75;;;12.03;52.93
46756;BME280;32506;52.826;-1.192;2023-02-14T18:09:05;102203.16;;;11.96;52.95
46756;BME280;32506;52.826;-1.192;2023-02-14T18:11:30;102197.69;;;11.89;52.89
46756;BME280;32506;52.826;-1.192;2023-02-14T18:13:56;102206.66;;;11.82;53.20
46756;BME280;32506;52.826;-1.192;2023-02-14T18:16:24;102193.28;;;11.73;53.06
46756;BME280;32506;52.826;-1.192;2023-02-14T18:18:50;102192.38;;;11.66;53.20
46756;BME280;32506;52.826;-1.192;2023-02-14T18:21:16;102189.56;;;11.59;53.24
46756;BME280;32506;52.826;-1.192;2023-02-14T18:23:52;102196.00;;;11.50;53.07
46756;BME280;32506;52.826;-1.192;2023-02-14T18:26:17;102191.72;;;11.41;52.88
46756;BME280;32506;52.826;-1.192;2023-02-14T18:28:44;102188.09;;;11.34;53.18
46756;BME280;32506;52.826;-1.192;2023-02-14T18:31:15;102188.16;;;11.25;52.96
46756;BME280;32506;52.826;-1.192;2023-02-14T18:33:42;102186.38;;;11.18;52.90
46756;BME280;32506;52.826;-1.192;2023-02-14T18:36:11;102185.59;;;11.09;53.19
46756;BME280;32506;52.826;-1.192;2023-02-14T18:38:38;102189.16;;;11.01;53.14
46756;BME280;32506;52.826;-1.192;2023-02-14T18:41:05;102187.34;;;10.94;53.30
46756;BME280;32506;52.826;-1.192;2023-02-14T18:43:32;102186.41;;;10.86;53.06
46756;BME280;32506;52.826;-1.192;2023-02-14T18:46:05;102182.09;;;10.77;53.01
46756;BME280;32506;52.826;-1.192;2023-02-14T18:48:31;102180.28;;;10.69;53.32
46756;BME280;32506;52.826;-1.192;2023-02-14T18:51:06;102184.66;;;10.62;52.97
46756;BME280;32506;52.826;-1.192;2023-02-14T18:53:33;102187.22;;;10.55;53.48
46756;BME280;32506;52.826;-1.192;2023-02-14T18:56:03;102185.59;;;10.46;53.21
46756;BME280;32506;52.826;-1.192;2023-02-14T18:58:28;102183.75;;;10.38;53.30
46756;BME280;32506;52.826;-1.192;2023-02-14T19:00:54;102182.72;;;10.31;53.08
46756;BME280;32506;52.826;-1.192;2023-02-14T19:03:20;102187.09;;;10.24;53.46
46756;BME280;32506;52.826;-1.192;2023-02-14T19:05:46;102182.44;;;10.18;53.33
46756;BME280;32506;52.826;-1.192;2023-02-14T19:08:11;102177.13;;;10.10;53.23
46756;BME280;32506;52.826;-1.192;2023-02-14T19:10:37;102172.66;;;10.02;53.35
46756;BME280;32506;52.826;-1.192;2023-02-14T19:13:02;102164.47;;;9.95;53.36
46756;BME280;32506;52.826;-1.192;2023-02-14T19:15:28;102168.81;;;9.88;53.22
46756;BME280;32506;52.826;-1.192;2023-02-14T19:17:53;102161.63;;;9.80;53.30
46756;BME280;32506;52.826;-1.192;2023-02-14T19:20:19;102155.31;;;9.73;53.21
46756;BME280;32506;52.826;-1.192;2023-02-14T19:22:44;102147.16;;;9.66;53.61
46756;BME280;32506;52.826;-1.192;2023-02-14T19:25:10;102156.00;;;9.58;53.35
46756;BME280;32506;52.826;-1.192;2023-02-14T19:27:36;102150.47;;;9.52;53.73
46756;BME280;32506;52.826;-1.192;2023-02-14T19:30:02;102143.16;;;9.46;53.39
46756;BME280;32506;52.826;-1.192;2023-02-14T19:32:27;102139.47;;;9.38;53.43
46756;BME280;32506;52.826;-1.192;2023-02-14T19:34:53;102130.47;;;9.31;53.68
46756;BME280;32506;52.826;-1.192;2023-02-14T19:37:18;102130.31;;;9.24;53.33
46756;BME280;32506;52.826;-1.192;2023-02-14T19:39:44;102138.97;;;9.18;53.64
46756;BME280;32506;52.826;-1.192;2023-02-14T19:42:09;102136.13;;;9.12;53.29
46756;BME280;32506;52.826;-1.192;2023-02-14T19:44:35;102135.94;;;9.05;53.42
46756;BME280;32506;52.826;-1.192;2023-02-14T19:47:00;102124.28;;;8.98;53.61
46756;BME280;32506;52.826;-1.192;2023-02-14T19:49:27;102121.44;;;8.91;53.32
46756;BME280;32506;52.826;-1.192;2023-02-14T19:51:53;102114.06;;;8.85;53.62
46756;BME280;32506;52.826;-1.192;2023-02-14T19:54:19;102121.06;;;8.78;53.48
46756;BME280;32506;52.826;-1.192;2023-02-14T19:56:51;102122.72;;;8.70;53.77
46756;BME280;32506;52.826;-1.192;2023-02-14T19:59:18;102121.38;;;8.66;53.77
46756;BME280;32506;52.826;-1.192;2023-02-14T20:01:47;102121.19;;;8.60;53.79
46756;BME280;32506;52.826;-1.192;2023-02-14T20:04:19;102120.16;;;8.52;53.37
46756;BME280;32506;52.826;-1.192;2023-02-14T20:06:47;102111.00;;;8.47;53.84
46756;BME280;32506;52.826;-1.192;2023-02-14T20:09:14;102120.59;;;8.39;53.63
46756;BME280;32506;52.826;-1.192;2023-02-14T20:11:48;102125.56;;;8.34;53.40
46756;BME280;32506;52.826;-1.192;2023-02-14T20:14:24;102125.38;;;8.28;53.75
46756;BME280;32506;52.826;-1.192;2023-02-14T20:16:51;102121.53;;;8.22;53.88
46756;BME280;32506;52.826;-1.192;2023-02-14T20:19:19;102108.84;;;8.16;53.86
46756;BME280;32506;52.826;-1.192;2023-02-14T20:21:47;102121.63;;;8.12;53.80
46756;BME280;32506;52.826;-1.192;2023-02-14T20:24:19;102118.75;;;8.05;53.94
46756;BME280;32506;52.826;-1.192;2023-02-14T20:26:44;102116.59;;;8.01;53.69
46756;BME280;32506;52.826;-1.192;2023-02-14T20:29:11;102116.06;;;7.97;54.38
46756;BME280;32506;52.826;-1.192;2023-02-14T20:31:41;102116.72;;;7.91;54.39
46756;BME280;32506;52.826;-1.192;2023-02-14T20:34:07;102103.69;;;7.88;54.51
46756;BME280;32506;52.826;-1.192;2023-02-14T20:36:32;102107.66;;;7.84;54.14
46756;BME280;32506;52.826;-1.192;2023-02-14T20:39:00;102105.47;;;7.79;54.62
46756;BME280;32506;52.826;-1.192;2023-02-14T20:41:27;102103.13;;;7.76;54.89
46756;BME280;32506;52.826;-1.192;2023-02-14T20:43:53;102101.75;;;7.72;54.40
46756;BME280;32506;52.826;-1.192;2023-02-14T20:46:20;102101.25;;;7.68;54.88
46756;BME280;32506;52.826;-1.192;2023-02-14T20:48:45;102103.22;;;7.66;54.55
46756;BME280;32506;52.826;-1.192;2023-02-14T20:51:16;102100.06;;;7.63;54.88
46756;BME280;32506;52.826;-1.192;2023-02-14T20:53:43;102098.69;;;7.59;54.71
46756;BME280;32506;52.826;-1.192;2023-02-14T20:56:10;102094.53;;;7.56;54.81
46756;BME280;32506;52.826;-1.192;2023-02-14T20:58:37;102095.66;;;7.53;54.83
46756;BME280;32506;52.826;-1.192;2023-02-14T21:01:13;102083.69;;;7.49;55.36
46756;BME280;32506;52.826;-1.192;2023-02-14T21:03:44;102080.47;;;7.46;55.68
46756;BME280;32506;52.826;-1.192;2023-02-14T21:06:12;102088.63;;;7.44;55.45
46756;BME280;32506;52.826;-1.192;2023-02-14T21:08:38;102093.25;;;7.42;55.81
46756;BME280;32506;52.826;-1.192;2023-02-14T21:11:06;102091.88;;;7.38;55.53
46756;BME280;32506;52.826;-1.192;2023-02-14T21:13:32;102090.22;;;7.37;55.70
46756;BME280;32506;52.826;-1.192;2023-02-14T21:18:32;102087.34;;;7.30;55.42
46756;BME280;32506;52.826;-1.192;2023-02-14T21:21:05;102099.09;;;7.28;55.93
46756;BME280;32506;52.826;-1.192;2023-02-14T21:23:31;102087.97;;;7.24;55.40
46756;BME280;32506;52.826;-1.192;2023-02-14T21:25:57;102090.78;;;7.22;55.90
46756;BME280;32506;52.826;-1.192;2023-02-14T21:28:22;102092.75;;;7.20;55.29
46756;BME280;32506;52.826;-1.192;2023-02-14T21:30:48;102086.88;;;7.17;55.91
46756;BME280;32506;52.826;-1.192;2023-02-14T21:33:13;102085.53;;;7.13;55.60
46756;BME280;32506;52.826;-1.192;2023-02-14T21:35:40;102082.19;;;7.11;55.85
46756;BME280;32506;52.826;-1.192;2023-02-14T21:38:05;102084.31;;;7.07;55.78
46756;BME280;32506;52.826;-1.192;2023-02-14T21:40:31;102075.69;;;7.05;55.27
46756;BME280;32506;52.826;-1.192;2023-02-14T21:42:56;102086.59;;;7.02;55.73
46756;BME280;32506;52.826;-1.192;2023-02-14T21:45:22;102086.91;;;6.99;55.58
46756;BME280;32506;52.826;-1.192;2023-02-14T21:48:06;102082.88;;;6.95;55.31
46756;BME280;32506;52.826;-1.192;2023-02-14T21:50:50;102078.88;;;6.91;55.23
46756;BME280;32506;52.826;-1.192;2023-02-14T21:53:15;102082.66;;;6.88;55.61
46756;BME280;32506;52.826;-1.192;2023-02-14T21:55:41;102071.47;;;6.84;55.67
46756;BME280;32506;52.826;-1.192;2023-02-14T21:58:07;102075.28;;;6.82;56.12
46756;BME280;32506;52.826;-1.192;2023-02-14T22:00:33;102061.47;;;6.78;55.34
46756;BME280;32506;52.826;-1.192;2023-02-14T22:02:58;102074.88;;;6.77;55.96
46756;BME280;32506;52.826;-1.192;2023-02-14T22:05:24;102069.88;;;6.74;55.38
46756;BME280;32506;52.826;-1.192;2023-02-14T22:07:49;102063.06;;;6.71;55.53
46756;BME280;32506;52.826;-1.192;2023-02-14T22:10:15;102057.88;;;6.69;56.23
46756;BME280;32506;52.826;-1.192;2023-02-14T22:12:41;102059.03;;;6.67;56.03
46756;BME280;32506;52.826;-1.192;2023-02-14T22:15:10;102054.03;;;6.64;55.95
46756;BME280;32506;52.826;-1.192;2023-02-14T22:17:38;102055.97;;;6.62;55.68
46756;BME280;32506;52.826;-1.192;2023-02-14T22:20:05;102052.66;;;6.60;56.06
46756;BME280;32506;52.826;-1.192;2023-02-14T22:22:33;102052.81;;;6.58;56.24
46756;BME280;32506;52.826;-1.192;2023-02-14T22:24:59;102048.63;;;6.55;56.25
46756;BME280;32506;52.826;-1.192;2023-02-14T22:27:24;102049.75;;;6.53;56.17
46756;BME280;32506;52.826;-1.192;2023-02-14T22:29:50;102047.25;;;6.51;56.21
46756;BME280;32506;52.826;-1.192;2023-02-14T22:32:15;102050.03;;;6.50;56.09
46756;BME280;32506;52.826;-1.192;2023-02-14T22:34:41;102047.69;;;6.47;56.32
46756;BME280;32506;52.826;-1.192;2023-02-14T22:37:06;102045.19;;;6.45;56.17
46756;BME280;32506;52.826;-1.192;2023-02-14T22:39:32;102056.13;;;6.42;56.67
46756;BME280;32506;52.826;-1.192;2023-02-14T22:41:57;102047.44;;;6.40;56.09
46756;BME280;32506;52.826;-1.192;2023-02-14T22:44:23;102052.91;;;6.38;56.39
46756;BME280;32506;52.826;-1.192;2023-02-14T22:46:49;102038.13;;;6.36;56.80
46756;BME280;32506;52.826;-1.192;2023-02-14T22:49:14;102043.72;;;6.33;56.53
46756;BME280;32506;52.826;-1.192;2023-02-14T22:51:41;102039.41;;;6.32;56.90
46756;BME280;32506;52.826;-1.192;2023-02-14T22:54:13;102035.22;;;6.29;56.60
46756;BME280;32506;52.826;-1.192;2023-02-14T22:56:43;102030.22;;;6.26;56.33
46756;BME280;32506;52.826;-1.192;2023-02-14T22:59:23;102028.69;;;6.24;57.01
46756;BME280;32506;52.826;-1.192;2023-02-14T23:01:51;102036.81;;;6.22;57.31
46756;BME280;32506;52.826;-1.192;2023-02-14T23:04:18;102047.59;;;6.20;57.08
46756;BME280;32506;52.826;-1.192;2023-02-14T23:06:46;102034.56;;;6.17;56.74
46756;BME280;32506;52.826;-1.192;2023-02-14T23:09:12;102040.91;;;6.16;56.78
46756;BME280;32506;52.826;-1.192;2023-02-14T23:11:40;102036.72;;;6.14;57.40
46756;BME280;32506;52.826;-1.192;2023-02-14T23:14:06;102035.84;;;6.13;56.87
46756;BME280;32506;52.826;-1.192;2023-02-14T23:16:50;102028.06;;;6.12;57.18
46756;BME280;32506;52.826;-1.192;2023-02-14T23:19:32;102031.84;;;6.09;57.07
46756;BME280;32506;52.826;-1.192;2023-02-14T23:22:28;102027.66;;;6.07;57.14
46756;BME280;32506;52.826;-1.192;2023-02-14T23:24:56;102026.81;;;6.06;57.09
46756;BME280;32506;52.826;-1.192;2023-02-14T23:27:30;102027.13;;;6.03;57.43
46756;BME280;32506;52.826;-1.192;2023-02-14T23:29:56;102024.47;;;6.03;57.35
46756;BME280;32506;52.826;-1.192;2023-02-14T23:32:21;102017.66;;;6.00;57.55
46756;BME280;32506;52.826;-1.192;2023-02-14T23:34:50;102017.75;;;5.99;57.54
46756;BME280;32506;52.826;-1.192;2023-02-14T23:37:15;102017.75;;;5.99;57.94
46756;BME280;32506;52.826;-1.192;2023-02-14T23:39:41;102016.22;;;5.96;57.57
46756;BME280;32506;52.826;-1.192;2023-02-14T23:42:09;102013.69;;;5.95;58.05
46756;BME280;32506;52.826;-1.192;2023-02-14T23:44:36;102019.16;;;5.93;58.18
46756;BME280;32506;52.826;-1.192;2023-02-14T23:47:04;102017.47;;;5.92;58.18
46756;BME280;32506;52.826;-1.192;2023-02-14T23:49:31;102015.84;;;5.91;58.16
46756;BME280;32506;52.826;-1.192;2023-02-14T23:51:57;102022.94;;;5.91;57.79
46756;BME280;32506;52.826;-1.192;2023-02-14T23:54:23;102006.19;;;5.90;57.96
46756;BME280;32506;52.826;-1.192;2023-02-14T23:56:49;102013.44;;;5.88;58.27
46756;BME280;32506;52.826;-1.192;2023-02-14T23:59:17;102004.81;;;5.86;57.81
